sensor_id;sensor_type;location;lat;lon;timestamp;P1;durP1;ratioP1;P2;durP2;ratioP2
34896;SDS011;43407;51.828;-2.298;2022-12-15T00:02:15;31.67;;;17.50;;
34896;SDS011;43407;51.828;-2.298;2022-12-15T00:07:44;37.47;;;19.58;;
34896;SDS011;43407;51.828;-2.298;2022-12-15T00:13:12;33.60;;;18.45;;
34896;SDS011;43407;51.828;-2.298;2022-12-15T00:18:40;34.67;;;17.77;;
34896;SDS011;43407;51.828;-2.298;2022-12-15T00:24:08;31.23;;;18.13;;
34896;SDS011;43407;51.828;-2.298;2022-12-15T00:26:52;30.45;;;17.27;;
34896;SDS011;43407;51.828;-2.298;2022-12-15T00:29:36;30.17;;;18.15;;
34896;SDS011;43407;51.828;-2.298;2022-12-15T00:35:04;25.98;;;15.45;;
34896;SDS011;43407;51.828;-2.298;2022-12-15T00:37:49;28.27;;;17.33;;
34896;SDS011;43407;51.828;-2.298;2022-12-15T00:40:33;32.20;;;18.27;;
34896;SDS011;43407;51.828;-2.298;2022-12-15T00:42:59;27.25;;;16.73;;
34896;SDS011;43407;51.828;-2.298;2022-12-15T00:45:25;31.73;;;18.15;;
34896;SDS011;43407;51.828;-2.298;2022-12-15T00:48:10;34.85;;;19.75;;
34896;SDS011;43407;51.828;-2.298;2022-12-15T00:50:36;31.55;;;17.65;;
34896;SDS011;43407;51.828;-2.298;2022-12-15T00:53:27;27.58;;;17.25;;
34896;SDS011;43407;51.828;-2.298;2022-12-15T00:58:55;32.10;;;17.90;;
34896;SDS011;43407;51.828;-2.298;2022-12-15T01:04:23;31.40;;;17.13;;
34896;SDS011;43407;51.828;-2.298;2022-12-15T01:07:07;34.30;;;18.23;;
34896;SDS011;43407;51.828;-2.298;2022-12-15T01:09:52;34.55;;;18.38;;
34896;SDS011;43407;51.828;-2.298;2022-12-15T01:15:20;33.60;;;18.27;;
34896;SDS011;43407;51.828;-2.298;2022-12-15T01:18:04;27.80;;;15.57;;
34896;SDS011;43407;51.828;-2.298;2022-12-15T01:23:21;26.52;;;14.45;;
34896;SDS011;43407;51.828;-2.298;2022-12-15T01:25:46;22.38;;;11.63;;
34896;SDS011;43407;51.828;-2.298;2022-12-15T01:28:15;19.75;;;11.82;;
34896;SDS011;43407;51.828;-2.298;2022-12-15T01:30:40;20.95;;;11.32;;
34896;SDS011;43407;51.828;-2.298;2022-12-15T01:33:06;21.02;;;12.05;;
34896;SDS011;43407;51.828;-2.298;2022-12-15T01:35:32;16.20;;;9.68;;
34896;SDS011;43407;51.828;-2.298;2022-12-15T01:37:57;19.58;;;10.52;;
34896;SDS011;43407;51.828;-2.298;2022-12-15T01:40:23;17.35;;;11.43;;
34896;SDS011;43407;51.828;-2.298;2022-12-15T01:43:15;16.70;;;10.68;;
34896;SDS011;43407;51.828;-2.298;2022-12-15T01:48:11;17.77;;;10.93;;
34896;SDS011;43407;51.828;-2.298;2022-12-15T01:50:43;15.10;;;9.90;;
34896;SDS011;43407;51.828;-2.298;2022-12-15T01:53:11;15.80;;;9.32;;
34896;SDS011;43407;51.828;-2.298;2022-12-15T01:55:38;15.02;;;10.10;;
34896;SDS011;43407;51.828;-2.298;2022-12-15T01:58:06;14.18;;;9.57;;
34896;SDS011;43407;51.828;-2.298;2022-12-15T02:00:32;12.60;;;7.95;;
34896;SDS011;43407;51.828;-2.298;2022-12-15T02:02:58;14.07;;;8.13;;
34896;SDS011;43407;51.828;-2.298;2022-12-15T02:05:26;16.60;;;10.35;;
34896;SDS011;43407;51.828;-2.298;2022-12-15T02:07:52;16.77;;;10.63;;
34896;SDS011;43407;51.828;-2.298;2022-12-15T02:10:18;21.52;;;11.35;;
34896;SDS011;43407;51.828;-2.298;2022-12-15T02:17:56;18.15;;;10.60;;
34896;SDS011;43407;51.828;-2.298;2022-12-15T02:20:37;18.30;;;10.43;;
34896;SDS011;43407;51.828;-2.298;2022-12-15T02:34:00;16.35;;;10.98;;
34896;SDS011;43407;51.828;-2.298;2022-12-15T02:36:37;19.08;;;10.90;;
34896;SDS011;43407;51.828;-2.298;2022-12-15T02:41:36;18.65;;;11.27;;
34896;SDS011;43407;51.828;-2.298;2022-12-15T02:44:11;15.80;;;11.05;;
34896;SDS011;43407;51.828;-2.298;2022-12-15T02:49:15;24.42;;;11.30;;
34896;SDS011;43407;51.828;-2.298;2022-12-15T02:59:55;16.08;;;10.60;;
34896;SDS011;43407;51.828;-2.298;2022-12-15T03:02:23;15.88;;;10.07;;
34896;SDS011;43407;51.828;-2.298;2022-12-15T03:04:51;15.10;;;9.85;;
34896;SDS011;43407;51.828;-2.298;2022-12-15T03:07:17;16.48;;;10.18;;
34896;SDS011;43407;51.828;-2.298;2022-12-15T03:09:43;12.23;;;8.60;;
34896;SDS011;43407;51.828;-2.298;2022-12-15T03:12:08;15.30;;;9.65;;
34896;SDS011;43407;51.828;-2.298;2022-12-15T03:14:34;14.75;;;9.18;;
34896;SDS011;43407;51.828;-2.298;2022-12-15T03:17:00;14.02;;;8.55;;
34896;SDS011;43407;51.828;-2.298;2022-12-15T03:19:26;14.00;;;8.50;;
34896;SDS011;43407;51.828;-2.298;2022-12-15T03:21:51;14.40;;;9.00;;
34896;SDS011;43407;51.828;-2.298;2022-12-15T03:24:17;16.23;;;9.68;;
34896;SDS011;43407;51.828;-2.298;2022-12-15T03:26:43;16.73;;;9.45;;
34896;SDS011;43407;51.828;-2.298;2022-12-15T03:29:12;17.33;;;10.23;;
34896;SDS011;43407;51.828;-2.298;2022-12-15T03:31:38;16.98;;;11.02;;
34896;SDS011;43407;51.828;-2.298;2022-12-15T03:34:03;22.92;;;11.18;;
34896;SDS011;43407;51.828;-2.298;2022-12-15T03:36:29;19.60;;;10.98;;
34896;SDS011;43407;51.828;-2.298;2022-12-15T03:38:54;18.17;;;11.70;;
34896;SDS011;43407;51.828;-2.298;2022-12-15T03:41:20;21.63;;;12.10;;
34896;SDS011;43407;51.828;-2.298;2022-12-15T03:43:45;20.75;;;12.75;;
34896;SDS011;43407;51.828;-2.298;2022-12-15T03:46:11;22.42;;;13.02;;
34896;SDS011;43407;51.828;-2.298;2022-12-15T03:48:37;18.08;;;10.90;;
34896;SDS011;43407;51.828;-2.298;2022-12-15T03:51:02;23.33;;;12.48;;
34896;SDS011;43407;51.828;-2.298;2022-12-15T03:53:28;17.30;;;11.32;;
34896;SDS011;43407;51.828;-2.298;2022-12-15T03:55:54;22.55;;;12.93;;
34896;SDS011;43407;51.828;-2.298;2022-12-15T03:58:19;22.52;;;12.23;;
34896;SDS011;43407;51.828;-2.298;2022-12-15T04:00:45;23.00;;;13.48;;
34896;SDS011;43407;51.828;-2.298;2022-12-15T04:03:11;24.45;;;12.73;;
34896;SDS011;43407;51.828;-2.298;2022-12-15T04:05:36;27.52;;;14.90;;
34896;SDS011;43407;51.828;-2.298;2022-12-15T04:08:03;24.08;;;13.05;;
34896;SDS011;43407;51.828;-2.298;2022-12-15T04:10:30;27.20;;;13.65;;
34896;SDS011;43407;51.828;-2.298;2022-12-15T04:13:00;22.35;;;12.95;;
34896;SDS011;43407;51.828;-2.298;2022-12-15T04:15:27;26.02;;;13.88;;
34896;SDS011;43407;51.828;-2.298;2022-12-15T04:17:53;24.25;;;13.32;;
34896;SDS011;43407;51.828;-2.298;2022-12-15T04:20:19;27.88;;;13.68;;
34896;SDS011;43407;51.828;-2.298;2022-12-15T04:22:46;25.65;;;13.65;;
34896;SDS011;43407;51.828;-2.298;2022-12-15T04:25:13;21.38;;;13.73;;
34896;SDS011;43407;51.828;-2.298;2022-12-15T04:27:59;21.60;;;12.10;;
34896;SDS011;43407;51.828;-2.298;2022-12-15T04:30:44;27.05;;;14.57;;
34896;SDS011;43407;51.828;-2.298;2022-12-15T04:33:32;21.40;;;12.88;;
34896;SDS011;43407;51.828;-2.298;2022-12-15T04:36:16;22.90;;;12.75;;
34896;SDS011;43407;51.828;-2.298;2022-12-15T04:41:44;17.60;;;10.40;;
34896;SDS011;43407;51.828;-2.298;2022-12-15T04:47:12;26.60;;;14.13;;
34896;SDS011;43407;51.828;-2.298;2022-12-15T04:49:56;23.92;;;13.10;;
34896;SDS011;43407;51.828;-2.298;2022-12-15T04:55:24;23.27;;;12.85;;
34896;SDS011;43407;51.828;-2.298;2022-12-15T05:00:52;22.53;;;12.03;;
34896;SDS011;43407;51.828;-2.298;2022-12-15T05:03:36;22.75;;;12.40;;
34896;SDS011;43407;51.828;-2.298;2022-12-15T05:06:21;20.45;;;12.43;;
34896;SDS011;43407;51.828;-2.298;2022-12-15T05:11:49;19.67;;;13.27;;
34896;SDS011;43407;51.828;-2.298;2022-12-15T05:17:17;22.92;;;14.15;;
34896;SDS011;43407;51.828;-2.298;2022-12-15T05:20:01;22.73;;;12.63;;
34896;SDS011;43407;51.828;-2.298;2022-12-15T05:22:45;24.40;;;12.80;;
34896;SDS011;43407;51.828;-2.298;2022-12-15T05:25:29;18.35;;;11.38;;
34896;SDS011;43407;51.828;-2.298;2022-12-15T05:30:57;20.55;;;12.70;;
34896;SDS011;43407;51.828;-2.298;2022-12-15T05:36:06;21.08;;;12.82;;
34896;SDS011;43407;51.828;-2.298;2022-12-15T05:38:32;19.70;;;11.68;;
34896;SDS011;43407;51.828;-2.298;2022-12-15T05:40:58;20.98;;;12.18;;
34896;SDS011;43407;51.828;-2.298;2022-12-15T05:43:23;23.00;;;12.88;;
34896;SDS011;43407;51.828;-2.298;2022-12-15T05:45:49;20.35;;;12.65;;
34896;SDS011;43407;51.828;-2.298;2022-12-15T05:48:14;21.60;;;12.95;;
34896;SDS011;43407;51.828;-2.298;2022-12-15T05:50:40;23.48;;;13.13;;
34896;SDS011;43407;51.828;-2.298;2022-12-15T05:53:06;17.50;;;11.27;;
34896;SDS011;43407;51.828;-2.298;2022-12-15T05:55:31;19.90;;;11.82;;
34896;SDS011;43407;51.828;-2.298;2022-12-15T05:57:57;22.00;;;12.23;;
34896;SDS011;43407;51.828;-2.298;2022-12-15T06:00:22;22.92;;;12.32;;
34896;SDS011;43407;51.828;-2.298;2022-12-15T06:02:48;19.73;;;12.02;;
34896;SDS011;43407;51.828;-2.298;2022-12-15T06:05:14;21.90;;;12.27;;
34896;SDS011;43407;51.828;-2.298;2022-12-15T06:07:39;21.75;;;12.60;;
34896;SDS011;43407;51.828;-2.298;2022-12-15T06:10:05;20.13;;;12.18;;
34896;SDS011;43407;51.828;-2.298;2022-12-15T06:12:31;23.63;;;12.98;;
34896;SDS011;43407;51.828;-2.298;2022-12-15T06:14:56;19.63;;;11.77;;
34896;SDS011;43407;51.828;-2.298;2022-12-15T06:17:23;18.65;;;12.23;;
34896;SDS011;43407;51.828;-2.298;2022-12-15T06:19:49;19.58;;;11.32;;
34896;SDS011;43407;51.828;-2.298;2022-12-15T06:22:14;22.52;;;12.05;;
34896;SDS011;43407;51.828;-2.298;2022-12-15T06:24:40;21.33;;;11.27;;
34896;SDS011;43407;51.828;-2.298;2022-12-15T06:27:06;20.50;;;11.48;;
34896;SDS011;43407;51.828;-2.298;2022-12-15T06:29:33;19.17;;;13.05;;
34896;SDS011;43407;51.828;-2.298;2022-12-15T06:31:58;21.98;;;12.23;;
34896;SDS011;43407;51.828;-2.298;2022-12-15T06:34:24;19.23;;;12.48;;
34896;SDS011;43407;51.828;-2.298;2022-12-15T06:36:49;20.00;;;11.70;;
34896;SDS011;43407;51.828;-2.298;2022-12-15T06:39:15;19.38;;;12.02;;
34896;SDS011;43407;51.828;-2.298;2022-12-15T06:41:41;20.27;;;12.55;;
34896;SDS011;43407;51.828;-2.298;2022-12-15T06:44:09;20.98;;;11.93;;
34896;SDS011;43407;51.828;-2.298;2022-12-15T06:46:37;19.75;;;11.98;;
34896;SDS011;43407;51.828;-2.298;2022-12-15T06:49:02;19.15;;;11.93;;
34896;SDS011;43407;51.828;-2.298;2022-12-15T06:51:28;17.40;;;11.68;;
34896;SDS011;43407;51.828;-2.298;2022-12-15T06:53:53;17.92;;;11.45;;
34896;SDS011;43407;51.828;-2.298;2022-12-15T06:56:24;17.00;;;11.30;;
34896;SDS011;43407;51.828;-2.298;2022-12-15T06:58:51;22.00;;;12.10;;
34896;SDS011;43407;51.828;-2.298;2022-12-15T07:01:18;19.58;;;12.20;;
34896;SDS011;43407;51.828;-2.298;2022-12-15T07:03:44;21.27;;;11.50;;
34896;SDS011;43407;51.828;-2.298;2022-12-15T07:06:11;20.75;;;12.15;;
34896;SDS011;43407;51.828;-2.298;2022-12-15T07:08:38;22.73;;;12.65;;
34896;SDS011;43407;51.828;-2.298;2022-12-15T07:11:05;24.95;;;13.23;;
34896;SDS011;43407;51.828;-2.298;2022-12-15T07:13:31;24.40;;;13.65;;
34896;SDS011;43407;51.828;-2.298;2022-12-15T07:15:58;30.02;;;13.63;;
34896;SDS011;43407;51.828;-2.298;2022-12-15T07:18:27;24.45;;;12.60;;
34896;SDS011;43407;51.828;-2.298;2022-12-15T07:20:53;18.27;;;11.57;;
34896;SDS011;43407;51.828;-2.298;2022-12-15T07:23:19;20.73;;;13.00;;
34896;SDS011;43407;51.828;-2.298;2022-12-15T07:25:45;21.35;;;11.95;;
34896;SDS011;43407;51.828;-2.298;2022-12-15T07:28:11;19.63;;;11.25;;
34896;SDS011;43407;51.828;-2.298;2022-12-15T07:30:37;20.75;;;11.75;;
34896;SDS011;43407;51.828;-2.298;2022-12-15T07:33:03;19.77;;;11.77;;
34896;SDS011;43407;51.828;-2.298;2022-12-15T07:35:29;20.10;;;11.90;;
34896;SDS011;43407;51.828;-2.298;2022-12-15T07:37:55;20.38;;;11.43;;
34896;SDS011;43407;51.828;-2.298;2022-12-15T07:40:20;20.35;;;12.07;;
34896;SDS011;43407;51.828;-2.298;2022-12-15T07:42:46;17.88;;;11.10;;
34896;SDS011;43407;51.828;-2.298;2022-12-15T07:45:12;16.95;;;10.88;;
34896;SDS011;43407;51.828;-2.298;2022-12-15T07:47:38;17.80;;;11.98;;
34896;SDS011;43407;51.828;-2.298;2022-12-15T07:50:05;18.00;;;11.80;;
34896;SDS011;43407;51.828;-2.298;2022-12-15T07:52:31;21.15;;;11.77;;
34896;SDS011;43407;51.828;-2.298;2022-12-15T07:54:56;14.20;;;10.45;;
34896;SDS011;43407;51.828;-2.298;2022-12-15T07:57:22;17.60;;;11.02;;
34896;SDS011;43407;51.828;-2.298;2022-12-15T07:59:48;15.45;;;9.50;;
34896;SDS011;43407;51.828;-2.298;2022-12-15T08:02:14;18.55;;;11.48;;
34896;SDS011;43407;51.828;-2.298;2022-12-15T08:04:40;22.20;;;11.60;;
34896;SDS011;43407;51.828;-2.298;2022-12-15T08:07:06;18.63;;;11.30;;
34896;SDS011;43407;51.828;-2.298;2022-12-15T08:09:33;16.02;;;11.07;;
34896;SDS011;43407;51.828;-2.298;2022-12-15T08:11:59;16.02;;;10.50;;
34896;SDS011;43407;51.828;-2.298;2022-12-15T08:14:25;17.00;;;11.35;;
34896;SDS011;43407;51.828;-2.298;2022-12-15T08:16:52;17.27;;;10.88;;
34896;SDS011;43407;51.828;-2.298;2022-12-15T08:19:18;16.02;;;10.95;;
34896;SDS011;43407;51.828;-2.298;2022-12-15T08:21:44;19.15;;;11.48;;
34896;SDS011;43407;51.828;-2.298;2022-12-15T08:24:11;18.08;;;11.60;;
34896;SDS011;43407;51.828;-2.298;2022-12-15T08:26:38;18.10;;;11.32;;
34896;SDS011;43407;51.828;-2.298;2022-12-15T08:29:06;17.58;;;10.60;;
34896;SDS011;43407;51.828;-2.298;2022-12-15T08:31:33;18.23;;;10.98;;
34896;SDS011;43407;51.828;-2.298;2022-12-15T08:33:59;17.42;;;10.90;;
34896;SDS011;43407;51.828;-2.298;2022-12-15T08:36:26;12.57;;;9.20;;
34896;SDS011;43407;51.828;-2.298;2022-12-15T08:38:52;17.95;;;10.20;;
34896;SDS011;43407;51.828;-2.298;2022-12-15T08:41:21;15.43;;;9.80;;
34896;SDS011;43407;51.828;-2.298;2022-12-15T08:43:49;14.65;;;10.13;;
34896;SDS011;43407;51.828;-2.298;2022-12-15T08:46:19;17.60;;;10.43;;
34896;SDS011;43407;51.828;-2.298;2022-12-15T08:48:47;17.40;;;11.18;;
34896;SDS011;43407;51.828;-2.298;2022-12-15T08:51:13;18.05;;;11.05;;
34896;SDS011;43407;51.828;-2.298;2022-12-15T08:53:39;21.25;;;12.23;;
34896;SDS011;43407;51.828;-2.298;2022-12-15T08:56:05;21.27;;;11.40;;
34896;SDS011;43407;51.828;-2.298;2022-12-15T08:58:36;18.23;;;11.25;;
34896;SDS011;43407;51.828;-2.298;2022-12-15T09:01:12;22.17;;;11.70;;
34896;SDS011;43407;51.828;-2.298;2022-12-15T09:03:41;17.55;;;11.43;;
34896;SDS011;43407;51.828;-2.298;2022-12-15T09:06:07;20.17;;;11.48;;
34896;SDS011;43407;51.828;-2.298;2022-12-15T09:08:36;13.20;;;8.90;;
34896;SDS011;43407;51.828;-2.298;2022-12-15T09:11:02;16.30;;;10.95;;
34896;SDS011;43407;51.828;-2.298;2022-12-15T09:13:29;18.90;;;10.88;;
34896;SDS011;43407;51.828;-2.298;2022-12-15T09:15:59;17.15;;;9.95;;
34896;SDS011;43407;51.828;-2.298;2022-12-15T09:18:25;11.48;;;8.07;;
34896;SDS011;43407;51.828;-2.298;2022-12-15T09:20:52;12.38;;;8.50;;
34896;SDS011;43407;51.828;-2.298;2022-12-15T09:23:18;11.90;;;8.57;;
34896;SDS011;43407;51.828;-2.298;2022-12-15T09:25:44;17.35;;;9.30;;
34896;SDS011;43407;51.828;-2.298;2022-12-15T09:28:10;17.38;;;9.88;;
34896;SDS011;43407;51.828;-2.298;2022-12-15T09:30:37;14.95;;;9.52;;
34896;SDS011;43407;51.828;-2.298;2022-12-15T09:33:03;15.13;;;10.20;;
34896;SDS011;43407;51.828;-2.298;2022-12-15T09:35:28;14.60;;;7.93;;
34896;SDS011;43407;51.828;-2.298;2022-12-15T09:37:55;16.77;;;10.30;;
34896;SDS011;43407;51.828;-2.298;2022-12-15T09:40:23;18.25;;;10.63;;
34896;SDS011;43407;51.828;-2.298;2022-12-15T09:42:54;13.93;;;10.23;;
34896;SDS011;43407;51.828;-2.298;2022-12-15T09:45:29;20.23;;;10.77;;
34896;SDS011;43407;51.828;-2.298;2022-12-15T09:48:02;14.90;;;10.18;;
34896;SDS011;43407;51.828;-2.298;2022-12-15T09:50:34;14.88;;;10.32;;
34896;SDS011;43407;51.828;-2.298;2022-12-15T09:53:02;17.00;;;10.80;;
34896;SDS011;43407;51.828;-2.298;2022-12-15T09:55:30;15.18;;;10.63;;
34896;SDS011;43407;51.828;-2.298;2022-12-15T10:00:48;12.65;;;9.38;;
34896;SDS011;43407;51.828;-2.298;2022-12-15T10:03:22;14.25;;;9.43;;
34896;SDS011;43407;51.828;-2.298;2022-12-15T10:06:12;13.25;;;8.27;;
34896;SDS011;43407;51.828;-2.298;2022-12-15T10:13:40;12.38;;;8.23;;
34896;SDS011;43407;51.828;-2.298;2022-12-15T10:19:04;9.93;;;7.32;;
34896;SDS011;43407;51.828;-2.298;2022-12-15T10:21:33;13.02;;;8.65;;
34896;SDS011;43407;51.828;-2.298;2022-12-15T10:29:58;9.02;;;6.57;;
34896;SDS011;43407;51.828;-2.298;2022-12-15T10:35:14;9.13;;;6.90;;
34896;SDS011;43407;51.828;-2.298;2022-12-15T10:40:13;10.88;;;7.97;;
34896;SDS011;43407;51.828;-2.298;2022-12-15T10:42:49;10.23;;;6.95;;
34896;SDS011;43407;51.828;-2.298;2022-12-15T10:48:00;10.95;;;8.35;;
34896;SDS011;43407;51.828;-2.298;2022-12-15T10:50:31;11.57;;;8.63;;
34896;SDS011;43407;51.828;-2.298;2022-12-15T10:52:57;7.68;;;6.20;;
34896;SDS011;43407;51.828;-2.298;2022-12-15T10:55:36;8.70;;;6.15;;
34896;SDS011;43407;51.828;-2.298;2022-12-15T10:58:18;22.73;;;7.88;;
34896;SDS011;43407;51.828;-2.298;2022-12-15T11:00:45;9.85;;;6.88;;
34896;SDS011;43407;51.828;-2.298;2022-12-15T11:03:33;10.35;;;7.35;;
34896;SDS011;43407;51.828;-2.298;2022-12-15T11:06:00;9.20;;;6.57;;
34896;SDS011;43407;51.828;-2.298;2022-12-15T11:08:26;10.18;;;6.65;;
34896;SDS011;43407;51.828;-2.298;2022-12-15T11:10:53;15.98;;;8.38;;
34896;SDS011;43407;51.828;-2.298;2022-12-15T11:13:39;34.05;;;7.30;;
34896;SDS011;43407;51.828;-2.298;2022-12-15T11:16:15;34.55;;;8.75;;
34896;SDS011;43407;51.828;-2.298;2022-12-15T11:18:46;8.65;;;6.80;;
34896;SDS011;43407;51.828;-2.298;2022-12-15T11:24:03;9.93;;;6.80;;
34896;SDS011;43407;51.828;-2.298;2022-12-15T11:26:34;69.07;;;9.00;;
34896;SDS011;43407;51.828;-2.298;2022-12-15T11:32:15;6.47;;;5.18;;
34896;SDS011;43407;51.828;-2.298;2022-12-15T11:34:43;9.38;;;6.82;;
34896;SDS011;43407;51.828;-2.298;2022-12-15T11:48:17;19.55;;;6.43;;
34896;SDS011;43407;51.828;-2.298;2022-12-15T11:59:08;6.32;;;4.93;;
34896;SDS011;43407;51.828;-2.298;2022-12-15T12:08:00;11.75;;;7.35;;
34896;SDS011;43407;51.828;-2.298;2022-12-15T12:13:23;10.55;;;6.57;;
34896;SDS011;43407;51.828;-2.298;2022-12-15T12:18:30;10.48;;;6.80;;
34896;SDS011;43407;51.828;-2.298;2022-12-15T12:21:04;12.52;;;7.75;;
34896;SDS011;43407;51.828;-2.298;2022-12-15T12:23:39;17.98;;;6.50;;
34896;SDS011;43407;51.828;-2.298;2022-12-15T12:29:14;10.07;;;6.70;;
34896;SDS011;43407;51.828;-2.298;2022-12-15T12:38:05;7.55;;;5.43;;
34896;SDS011;43407;51.828;-2.298;2022-12-15T12:43:06;9.23;;;5.55;;
34896;SDS011;43407;51.828;-2.298;2022-12-15T12:45:39;11.73;;;5.63;;
34896;SDS011;43407;51.828;-2.298;2022-12-15T12:48:16;9.95;;;6.28;;
34896;SDS011;43407;51.828;-2.298;2022-12-15T12:50:44;8.90;;;5.20;;
34896;SDS011;43407;51.828;-2.298;2022-12-15T12:53:32;18.67;;;5.85;;
34896;SDS011;43407;51.828;-2.298;2022-12-15T12:55:57;7.90;;;4.97;;
34896;SDS011;43407;51.828;-2.298;2022-12-15T12:58:29;7.93;;;5.18;;
34896;SDS011;43407;51.828;-2.298;2022-12-15T13:01:17;10.23;;;5.65;;
34896;SDS011;43407;51.828;-2.298;2022-12-15T13:03:45;9.32;;;4.55;;
34896;SDS011;43407;51.828;-2.298;2022-12-15T13:08:59;5.97;;;4.43;;
34896;SDS011;43407;51.828;-2.298;2022-12-15T13:11:54;5.32;;;4.70;;
34896;SDS011;43407;51.828;-2.298;2022-12-15T13:14:42;9.65;;;5.25;;
34896;SDS011;43407;51.828;-2.298;2022-12-15T13:17:16;5.07;;;4.22;;
34896;SDS011;43407;51.828;-2.298;2022-12-15T13:22:25;5.82;;;3.97;;
34896;SDS011;43407;51.828;-2.298;2022-12-15T13:24:55;5.22;;;3.83;;
34896;SDS011;43407;51.828;-2.298;2022-12-15T13:27:21;9.38;;;4.78;;
34896;SDS011;43407;51.828;-2.298;2022-12-15T13:29:55;7.05;;;4.03;;
34896;SDS011;43407;51.828;-2.298;2022-12-15T13:32:31;5.20;;;4.20;;
34896;SDS011;43407;51.828;-2.298;2022-12-15T13:53:30;8.77;;;4.00;;
34896;SDS011;43407;51.828;-2.298;2022-12-15T13:56:13;21.58;;;4.35;;
34896;SDS011;43407;51.828;-2.298;2022-12-15T13:59:12;4.45;;;3.63;;
34896;SDS011;43407;51.828;-2.298;2022-12-15T14:01:49;9.38;;;4.15;;
34896;SDS011;43407;51.828;-2.298;2022-12-15T14:04:15;5.80;;;4.50;;
34896;SDS011;43407;51.828;-2.298;2022-12-15T14:06:45;7.22;;;4.57;;
34896;SDS011;43407;51.828;-2.298;2022-12-15T14:09:12;6.57;;;4.50;;
34896;SDS011;43407;51.828;-2.298;2022-12-15T14:11:40;8.30;;;5.55;;
34896;SDS011;43407;51.828;-2.298;2022-12-15T14:14:11;7.22;;;4.70;;
34896;SDS011;43407;51.828;-2.298;2022-12-15T14:16:41;6.85;;;4.90;;
34896;SDS011;43407;51.828;-2.298;2022-12-15T14:21:33;12.13;;;5.00;;
34896;SDS011;43407;51.828;-2.298;2022-12-15T14:23:58;8.85;;;4.50;;
34896;SDS011;43407;51.828;-2.298;2022-12-15T14:26:26;9.73;;;4.50;;
34896;SDS011;43407;51.828;-2.298;2022-12-15T14:28:59;13.10;;;6.00;;
34896;SDS011;43407;51.828;-2.298;2022-12-15T14:31:25;7.32;;;4.60;;
34896;SDS011;43407;51.828;-2.298;2022-12-15T14:33:59;8.73;;;4.63;;
34896;SDS011;43407;51.828;-2.298;2022-12-15T14:36:27;6.50;;;4.90;;
34896;SDS011;43407;51.828;-2.298;2022-12-15T14:41:26;6.60;;;4.68;;
34896;SDS011;43407;51.828;-2.298;2022-12-15T14:43:59;8.45;;;5.90;;
34896;SDS011;43407;51.828;-2.298;2022-12-15T14:46:27;7.38;;;4.60;;
34896;SDS011;43407;51.828;-2.298;2022-12-15T14:48:57;6.97;;;4.45;;
34896;SDS011;43407;51.828;-2.298;2022-12-15T14:51:25;6.60;;;4.40;;
34896;SDS011;43407;51.828;-2.298;2022-12-15T14:53:53;8.38;;;4.35;;
34896;SDS011;43407;51.828;-2.298;2022-12-15T14:58:45;6.28;;;4.40;;
34896;SDS011;43407;51.828;-2.298;2022-12-15T15:04:01;8.80;;;4.28;;
34896;SDS011;43407;51.828;-2.298;2022-12-15T15:06:29;9.18;;;5.10;;
34896;SDS011;43407;51.828;-2.298;2022-12-15T15:09:02;7.10;;;4.55;;
34896;SDS011;43407;51.828;-2.298;2022-12-15T15:11:47;5.72;;;4.55;;
34896;SDS011;43407;51.828;-2.298;2022-12-15T15:14:17;6.88;;;4.80;;
34896;SDS011;43407;51.828;-2.298;2022-12-15T15:19:44;6.35;;;5.20;;
34896;SDS011;43407;51.828;-2.298;2022-12-15T15:23:01;12.07;;;6.10;;
34896;SDS011;43407;51.828;-2.298;2022-12-15T15:30:53;6.60;;;5.40;;
34896;SDS011;43407;51.828;-2.298;2022-12-15T15:33:25;6.72;;;5.18;;
34896;SDS011;43407;51.828;-2.298;2022-12-15T15:35:52;5.32;;;4.57;;
34896;SDS011;43407;51.828;-2.298;2022-12-15T15:40:58;7.45;;;5.05;;
34896;SDS011;43407;51.828;-2.298;2022-12-15T15:43:40;6.20;;;4.85;;
34896;SDS011;43407;51.828;-2.298;2022-12-15T15:46:08;7.53;;;5.00;;
34896;SDS011;43407;51.828;-2.298;2022-12-15T15:48:46;6.78;;;5.10;;
34896;SDS011;43407;51.828;-2.298;2022-12-15T15:51:18;5.40;;;4.60;;
34896;SDS011;43407;51.828;-2.298;2022-12-15T15:53:44;6.00;;;4.07;;
34896;SDS011;43407;51.828;-2.298;2022-12-15T15:56:11;6.55;;;4.47;;
34896;SDS011;43407;51.828;-2.298;2022-12-15T15:58:38;4.63;;;3.83;;
34896;SDS011;43407;51.828;-2.298;2022-12-15T16:01:05;6.28;;;4.60;;
34896;SDS011;43407;51.828;-2.298;2022-12-15T16:03:31;5.43;;;4.32;;
34896;SDS011;43407;51.828;-2.298;2022-12-15T16:05:56;7.93;;;4.20;;
34896;SDS011;43407;51.828;-2.298;2022-12-15T16:08:40;7.18;;;4.22;;
34896;SDS011;43407;51.828;-2.298;2022-12-15T16:11:08;7.90;;;3.75;;
34896;SDS011;43407;51.828;-2.298;2022-12-15T16:13:36;4.63;;;4.00;;
34896;SDS011;43407;51.828;-2.298;2022-12-15T16:16:02;5.10;;;3.97;;
34896;SDS011;43407;51.828;-2.298;2022-12-15T16:18:28;6.22;;;4.05;;
34896;SDS011;43407;51.828;-2.298;2022-12-15T16:20:54;4.60;;;3.55;;
34896;SDS011;43407;51.828;-2.298;2022-12-15T16:23:25;5.15;;;3.88;;
34896;SDS011;43407;51.828;-2.298;2022-12-15T16:25:58;5.03;;;4.00;;
34896;SDS011;43407;51.828;-2.298;2022-12-15T16:28:25;4.95;;;3.63;;
34896;SDS011;43407;51.828;-2.298;2022-12-15T16:30:52;4.97;;;3.78;;
34896;SDS011;43407;51.828;-2.298;2022-12-15T16:33:18;4.50;;;3.80;;
34896;SDS011;43407;51.828;-2.298;2022-12-15T16:35:43;5.93;;;4.30;;
34896;SDS011;43407;51.828;-2.298;2022-12-15T16:38:28;5.10;;;4.45;;
34896;SDS011;43407;51.828;-2.298;2022-12-15T16:40:55;6.38;;;4.97;;
34896;SDS011;43407;51.828;-2.298;2022-12-15T16:43:22;5.47;;;4.70;;
34896;SDS011;43407;51.828;-2.298;2022-12-15T16:45:49;5.85;;;4.20;;
34896;SDS011;43407;51.828;-2.298;2022-12-15T16:48:16;6.75;;;4.63;;
34896;SDS011;43407;51.828;-2.298;2022-12-15T16:50:42;4.10;;;3.63;;
34896;SDS011;43407;51.828;-2.298;2022-12-15T16:53:17;4.05;;;3.65;;
34896;SDS011;43407;51.828;-2.298;2022-12-15T16:55:45;4.80;;;3.97;;
34896;SDS011;43407;51.828;-2.298;2022-12-15T16:58:13;4.00;;;3.38;;
34896;SDS011;43407;51.828;-2.298;2022-12-15T17:00:40;4.78;;;3.95;;
34896;SDS011;43407;51.828;-2.298;2022-12-15T17:03:07;4.22;;;3.72;;
34896;SDS011;43407;51.828;-2.298;2022-12-15T17:05:36;3.55;;;3.10;;
34896;SDS011;43407;51.828;-2.298;2022-12-15T17:08:03;4.05;;;3.65;;
34896;SDS011;43407;51.828;-2.298;2022-12-15T17:10:30;4.00;;;3.60;;
34896;SDS011;43407;51.828;-2.298;2022-12-15T17:13:03;6.60;;;3.85;;
34896;SDS011;43407;51.828;-2.298;2022-12-15T17:15:30;5.18;;;4.68;;
34896;SDS011;43407;51.828;-2.298;2022-12-15T17:17:56;7.30;;;4.22;;
34896;SDS011;43407;51.828;-2.298;2022-12-15T17:20:26;4.28;;;3.72;;
34896;SDS011;43407;51.828;-2.298;2022-12-15T17:22:54;6.72;;;4.50;;
34896;SDS011;43407;51.828;-2.298;2022-12-15T17:25:23;8.07;;;5.40;;
34896;SDS011;43407;51.828;-2.298;2022-12-15T17:27:51;6.13;;;4.38;;
34896;SDS011;43407;51.828;-2.298;2022-12-15T17:30:18;6.47;;;5.30;;
34896;SDS011;43407;51.828;-2.298;2022-12-15T17:32:44;7.00;;;5.78;;
34896;SDS011;43407;51.828;-2.298;2022-12-15T17:35:10;21.48;;;5.97;;
34896;SDS011;43407;51.828;-2.298;2022-12-15T17:37:36;6.70;;;5.35;;
34896;SDS011;43407;51.828;-2.298;2022-12-15T17:40:09;5.22;;;4.45;;
34896;SDS011;43407;51.828;-2.298;2022-12-15T17:42:42;25.92;;;5.82;;
34896;SDS011;43407;51.828;-2.298;2022-12-15T17:45:15;8.65;;;6.13;;
34896;SDS011;43407;51.828;-2.298;2022-12-15T17:47:42;6.47;;;5.15;;
34896;SDS011;43407;51.828;-2.298;2022-12-15T17:50:08;6.15;;;4.63;;
34896;SDS011;43407;51.828;-2.298;2022-12-15T17:52:34;6.07;;;5.30;;
34896;SDS011;43407;51.828;-2.298;2022-12-15T17:55:00;6.63;;;5.47;;